Time;durP1;ratioP1;P1;durP2;ratioP2;P2;SDS_P1;SDS_P2;PMS_P1;PMS_P2;Temp;Humidity;BMP_temperature;BMP_pressure;BME280_temperature;BME280_humidity;BME280_pressure;Samples;Min_cycle;Max_cycle;Signal;HPM_P1;HPM_P2
2022/11/10 00:00:14;;;;;;;5.77;1.67;;;10.60;99.90;;;;;;5036972;28;20671;-88
2022/11/10 00:02:42;;;;;;;6.95;2.00;;;10.60;99.90;;;;;;5053302;28;20201;-88
2022/11/10 00:05:09;;;;;;;7.65;1.90;;;10.70;99.90;;;;;;5053158;28;20231;-88
2022/11/10 00:07:35;;;;;;;10.23;1.50;;;10.60;99.90;;;;;;5053316;28;20260;-88
2022/11/10 00:10:01;;;;;;;8.70;2.17;;;10.60;99.90;;;;;;5036409;28;20619;-87
2022/11/10 00:12:27;;;;;;;9.47;1.83;;;10.70;99.90;;;;;;5053012;28;20412;-87
2022/11/10 00:17:36;;;;;;;10.38;1.90;;;10.80;99.90;;;;;;5079695;22;20303;-88
2022/11/10 00:20:04;;;;;;;9.33;2.03;;;10.80;99.90;;;;;;5062367;28;20190;-88
2022/11/10 00:22:30;;;;;;;5.65;1.85;;;10.80;99.90;;;;;;5137619;22;20491;-89
2022/11/10 00:24:56;;;;;;;7.82;2.40;;;10.80;99.90;;;;;;5033263;28;20182;-87
2022/11/10 00:27:22;;;;;;;4.43;1.80;;;10.80;99.90;;;;;;5016406;28;20720;-88
2022/11/10 00:29:47;;;;;;;16.33;3.17;;;10.70;99.90;;;;;;5033058;28;20308;-88
2022/11/10 00:32:13;;;;;;;5.27;1.90;;;10.70;99.90;;;;;;5016037;28;20182;-89
2022/11/10 00:34:38;;;;;;;8.77;1.77;;;10.70;99.90;;;;;;5000345;28;20186;-88
2022/11/10 00:37:04;;;;;;;12.10;1.53;;;10.70;99.90;;;;;;5032736;28;20588;-88
2022/11/10 00:39:29;;;;;;;8.33;2.13;;;10.70;99.90;;;;;;5033944;28;20260;-89
2022/11/10 00:41:55;;;;;;;6.53;2.27;;;10.70;99.90;;;;;;5032700;28;20245;-88
2022/11/10 00:44:21;;;;;;;10.20;1.90;;;10.60;99.90;;;;;;5033851;28;20559;-88
2022/11/10 00:46:46;;;;;;;6.70;2.10;;;10.50;99.90;;;;;;5032959;28;20178;-88
2022/11/10 00:49:12;;;;;;;8.40;1.70;;;10.50;99.90;;;;;;5034279;28;20206;-88
2022/11/10 00:51:38;;;;;;;5.87;2.03;;;10.50;99.90;;;;;;5018478;28;20639;-89
2022/11/10 00:54:03;;;;;;;7.57;2.00;;;10.40;99.90;;;;;;5037382;28;20182;-88
2022/11/10 00:56:29;;;;;;;7.70;2.10;;;10.40;99.90;;;;;;5037298;28;20182;-88
2022/11/10 00:58:55;;;;;;;2.70;1.30;;;10.30;99.90;;;;;;5020032;28;20193;-88
2022/11/10 01:01:24;;;;;;;4.93;1.37;;;10.30;99.90;;;;;;5019638;28;20186;-87
2022/11/10 01:03:52;;;;;;;7.68;1.85;;;10.20;99.90;;;;;;5037583;28;20417;-89
2022/11/10 01:06:19;;;;;;;7.90;1.90;;;10.10;99.90;;;;;;5037090;28;20278;-88
2022/11/10 01:08:45;;;;;;;10.65;1.98;;;10.10;99.90;;;;;;5035981;28;20210;-89
2022/11/10 01:11:17;;;;;;;5.65;1.60;;;10.10;99.90;;;;;;5035712;28;20198;-89
2022/11/10 01:13:44;;;;;;;4.75;1.63;;;10.10;99.90;;;;;;5035970;28;20185;-87
2022/11/10 01:16:13;;;;;;;13.38;2.17;;;10.00;99.90;;;;;;5035639;28;20273;-88
2022/11/10 01:18:39;;;;;;;7.25;1.70;;;9.90;99.90;;;;;;5037078;28;20237;-89
2022/11/10 01:21:05;;;;;;;8.57;2.57;;;9.80;99.90;;;;;;5035443;28;20238;-88
2022/11/10 01:23:31;;;;;;;9.00;1.80;;;9.80;99.90;;;;;;5037296;28;20182;-88
2022/11/10 01:26:03;;;;;;;5.60;1.90;;;9.80;99.90;;;;;;5036053;28;20186;-88
2022/11/10 01:28:30;;;;;;;7.97;2.00;;;9.80;99.90;;;;;;5035869;28;20305;-88
2022/11/10 01:31:00;;;;;;;4.47;1.88;;;9.80;99.90;;;;;;5036729;28;20273;-88
2022/11/10 01:33:26;;;;;;;9.90;1.88;;;9.80;99.90;;;;;;5035386;28;20197;-89
2022/11/10 01:35:52;;;;;;;7.05;2.50;;;9.80;99.90;;;;;;5036780;28;20644;-89
2022/11/10 01:38:17;;;;;;;9.37;2.37;;;9.80;99.90;;;;;;5036210;28;20328;-89
2022/11/10 01:40:43;;;;;;;12.00;2.17;;;9.80;99.90;;;;;;5037771;28;20665;-89
2022/11/10 01:43:10;;;;;;;5.57;1.70;;;9.70;99.90;;;;;;5018428;28;20190;-88
2022/11/10 01:45:48;;;;;;;10.00;2.47;;;9.70;99.90;;;;;;5036668;28;20198;-88
2022/11/10 01:48:28;;;;;;;10.27;2.70;;;9.60;99.90;;;;;;5036216;28;20166;-89
2022/11/10 01:50:57;;;;;;;6.72;2.00;;;9.50;99.90;;;;;;5036733;28;20205;-88
2022/11/10 01:53:26;;;;;;;6.47;2.35;;;9.50;99.90;;;;;;5034981;28;20185;-88
2022/11/10 01:55:53;;;;;;;12.80;2.55;;;9.50;99.90;;;;;;5036627;28;20193;-89
2022/11/10 01:58:24;;;;;;;7.85;2.17;;;9.40;99.90;;;;;;5018583;28;20190;-88
2022/11/10 02:00:50;;;;;;;9.77;2.00;;;9.40;99.90;;;;;;5036592;28;20166;-88
2022/11/10 02:03:37;;;;;;;9.75;2.10;;;9.40;99.90;;;;;;5035495;28;20220;-88
2022/11/10 02:06:03;;;;;;;11.18;2.85;;;9.40;99.90;;;;;;5035361;28;20601;-88
2022/11/10 02:08:29;;;;;;;7.45;1.92;;;9.40;99.90;;;;;;5036294;28;20209;-88
2022/11/10 02:10:55;;;;;;;12.80;1.93;;;9.30;99.90;;;;;;5035003;28;20194;-88
2022/11/10 02:13:21;;;;;;;7.53;1.60;;;9.30;99.90;;;;;;5034761;28;20449;-89
2022/11/10 02:15:46;;;;;;;6.30;1.90;;;9.30;99.90;;;;;;5018659;28;20183;-89
2022/11/10 02:18:12;;;;;;;8.53;2.30;;;9.30;99.90;;;;;;5035897;28;20653;-88
2022/11/10 02:20:37;;;;;;;6.10;1.83;;;9.30;99.90;;;;;;5034954;28;20204;-89
2022/11/10 02:23:28;;;;;;;6.10;1.70;;;9.20;99.90;;;;;;5034718;28;20600;-88
2022/11/10 02:25:54;;;;;;;12.40;2.90;;;9.20;99.90;;;;;;5036447;28;20184;-89
2022/11/10 02:28:19;;;;;;;7.20;2.03;;;9.20;99.90;;;;;;5034635;28;20273;-88
2022/11/10 02:30:45;;;;;;;9.33;1.73;;;9.20;99.90;;;;;;5036109;28;20215;-89
2022/11/10 02:33:10;;;;;;;10.03;2.13;;;9.20;99.90;;;;;;5017982;28;20190;-88
2022/11/10 02:35:36;;;;;;;10.77;2.27;;;9.30;99.90;;;;;;5034523;28;20182;-87
2022/11/10 02:38:02;;;;;;;7.43;2.03;;;9.50;99.90;;;;;;5034777;28;20185;-89
2022/11/10 02:40:28;;;;;;;12.13;2.28;;;9.60;99.90;;;;;;5034364;28;20202;-89
2022/11/10 02:42:53;;;;;;;4.10;2.07;;;9.70;99.90;;;;;;5018018;28;20283;-88
2022/11/10 02:45:19;;;;;;;7.17;2.10;;;9.70;99.90;;;;;;5034271;28;20178;-89
2022/11/10 02:47:44;;;;;;;10.67;1.93;;;9.70;99.90;;;;;;5034626;28;20189;-90
2022/11/10 02:50:10;;;;;;;12.10;2.00;;;9.70;99.90;;;;;;5035576;28;20615;-89
2022/11/10 02:52:35;;;;;;;10.17;1.37;;;9.60;99.90;;;;;;5034483;28;20259;-88
2022/11/10 02:55:01;;;;;;;9.17;2.23;;;9.60;99.90;;;;;;5034810;28;20264;-89
2022/11/10 02:57:27;;;;;;;12.10;2.90;;;9.60;99.90;;;;;;5035139;28;20178;-90
2022/11/10 02:59:52;;;;;;;9.53;2.27;;;9.60;99.90;;;;;;5001709;28;20256;-89
2022/11/10 03:02:18;;;;;;;11.73;2.27;;;9.60;99.90;;;;;;5034620;28;20183;-89
2022/11/10 03:04:43;;;;;;;11.17;1.90;;;9.60;99.90;;;;;;5035132;28;20190;-89
2022/11/10 03:07:09;;;;;;;6.57;2.10;;;9.60;99.90;;;;;;5035994;28;20178;-87
2022/11/10 03:09:34;;;;;;;9.70;1.73;;;9.60;99.90;;;;;;5034582;28;20292;-89
2022/11/10 03:12:00;;;;;;;8.67;1.80;;;9.50;99.90;;;;;;5034204;28;20638;-89
2022/11/10 03:14:25;;;;;;;13.50;2.03;;;9.50;99.90;;;;;;5033097;28;20187;-89
2022/11/10 03:16:51;;;;;;;9.43;2.20;;;9.50;99.90;;;;;;5034182;28;20178;-89
2022/11/10 03:19:17;;;;;;;9.33;2.00;;;9.60;99.90;;;;;;5033937;28;20209;-89
2022/11/10 03:21:42;;;;;;;10.13;2.43;;;9.60;99.90;;;;;;5016937;28;20480;-88
2022/11/10 03:24:08;;;;;;;9.17;3.07;;;9.50;99.90;;;;;;5034045;28;20658;-89
2022/11/10 03:26:34;;;;;;;6.73;1.90;;;9.50;99.90;;;;;;5033703;28;20262;-88
2022/11/10 03:28:59;;;;;;;17.07;2.90;;;9.50;99.90;;;;;;5033623;28;20240;-89
2022/11/10 03:31:25;;;;;;;10.07;1.80;;;9.60;99.90;;;;;;5034700;28;20178;-86
2022/11/10 03:33:50;;;;;;;6.40;1.83;;;9.50;99.90;;;;;;5034233;28;20302;-89
2022/11/10 03:36:16;;;;;;;8.13;2.07;;;9.50;99.90;;;;;;5018836;28;20692;-88
2022/11/10 03:38:41;;;;;;;13.90;2.70;;;9.50;99.90;;;;;;5036079;28;20202;-88
2022/11/10 03:41:07;;;;;;;8.83;2.00;;;9.50;99.90;;;;;;5034213;28;20179;-89
2022/11/10 03:43:32;;;;;;;6.93;1.80;;;9.50;99.90;;;;;;5033102;28;20182;-89
2022/11/10 03:45:58;;;;;;;12.53;2.37;;;9.60;99.90;;;;;;5034628;28;20174;-89
2022/11/10 03:48:23;;;;;;;9.40;2.57;;;9.60;99.90;;;;;;5033541;28;20704;-89
2022/11/10 03:50:49;;;;;;;8.80;2.57;;;9.60;99.90;;;;;;5033250;28;20190;-89
2022/11/10 03:53:15;;;;;;;11.60;2.67;;;9.60;99.90;;;;;;5032911;28;20264;-89
2022/11/10 03:55:40;;;;;;;7.20;1.63;;;9.60;99.90;;;;;;5000370;28;20626;-89
2022/11/10 03:58:06;;;;;;;5.33;1.80;;;9.60;99.90;;;;;;5016933;28;20182;-89
2022/11/10 04:00:31;;;;;;;7.00;1.77;;;9.60;99.90;;;;;;5033167;28;20276;-89
2022/11/10 04:02:57;;;;;;;6.20;1.90;;;9.60;99.90;;;;;;5033647;28;20657;-89
2022/11/10 04:10:57;;;;;;;12.80;2.47;;;9.50;99.90;;;;;;5034635;28;20185;-88
2022/11/10 04:16:07;;;;;;;9.85;1.65;;;9.30;99.90;;;;;;5034314;28;20238;-89
2022/11/10 04:18:32;;;;;;;11.60;2.50;;;9.30;99.90;;;;;;5034001;28;20186;-88
2022/11/10 04:21:00;;;;;;;6.07;1.67;;;9.30;99.90;;;;;;5032561;28;20193;-89
2022/11/10 04:23:37;;;;;;;5.88;2.05;;;9.40;99.90;;;;;;5033618;28;20172;-88
2022/11/10 04:28:53;;;;;;;16.48;2.70;;;9.40;99.90;;;;;;5038202;28;20320;-88
2022/11/10 04:31:20;;;;;;;12.30;3.35;;;9.40;99.90;;;;;;5039477;28;20186;-88
2022/11/10 04:33:48;;;;;;;12.50;2.22;;;9.40;99.90;;;;;;5041113;28;20178;-88
2022/11/10 04:36:17;;;;;;;7.57;1.85;;;9.40;99.90;;;;;;5038137;28;20178;-83
2022/11/10 04:38:43;;;;;;;6.07;1.95;;;9.50;99.90;;;;;;5038345;28;20237;-89
2022/11/10 04:41:09;;;;;;;11.07;2.40;;;9.40;99.90;;;;;;5037952;28;20264;-88
2022/11/10 04:43:35;;;;;;;9.43;1.83;;;9.40;99.90;;;;;;5026959;28;20776;-89
2022/11/10 04:46:02;;;;;;;10.98;1.80;;;9.40;99.90;;;;;;5056500;28;20420;-89
2022/11/10 04:48:29;;;;;;;9.40;2.00;;;9.40;99.90;;;;;;5039807;28;20692;-89
2022/11/10 04:50:54;;;;;;;17.17;3.00;;;9.30;99.90;;;;;;5056354;28;20601;-88
2022/11/10 04:53:21;;;;;;;11.67;2.10;;;9.20;99.90;;;;;;5057532;28;20197;-88
2022/11/10 04:55:47;;;;;;;7.85;1.60;;;9.20;99.90;;;;;;5057751;28;20173;-88
2022/11/10 04:58:13;;;;;;;6.78;2.00;;;9.10;99.90;;;;;;5057519;28;20211;-89
2022/11/10 05:00:40;;;;;;;5.32;2.15;;;9.00;99.90;;;;;;5055707;28;20264;-83
2022/11/10 05:03:08;;;;;;;6.50;2.10;;;9.00;99.90;;;;;;5051157;28;20260;-85
2022/11/10 05:05:33;;;;;;;7.18;1.48;;;9.00;99.90;;;;;;5054865;28;20275;-87
2022/11/10 05:08:00;;;;;;;10.63;2.83;;;8.90;99.90;;;;;;5053801;28;20173;-88
2022/11/10 05:10:26;;;;;;;5.60;2.10;;;8.90;99.90;;;;;;5052931;28;20248;-86
2022/11/10 05:12:53;;;;;;;11.47;2.30;;;8.80;99.90;;;;;;5051722;28;20707;-87
2022/11/10 05:15:19;;;;;;;8.18;1.98;;;8.80;99.90;;;;;;5050671;28;20419;-88
2022/11/10 05:17:51;;;;;;;9.60;2.13;;;8.80;99.90;;;;;;5057559;28;20185;-89
2022/11/10 05:20:17;;;;;;;8.63;2.20;;;8.70;99.90;;;;;;5055602;28;20177;-84
2022/11/10 05:22:45;;;;;;;5.43;2.10;;;8.60;99.90;;;;;;5055813;28;20252;-87
2022/11/10 05:25:10;;;;;;;8.68;2.28;;;8.60;99.90;;;;;;5057911;28;20182;-84
2022/11/10 05:27:36;;;;;;;9.83;2.40;;;8.60;99.90;;;;;;5080084;28;20153;-83
2022/11/10 05:30:02;;;;;;;10.53;2.60;;;8.50;99.90;;;;;;5072168;28;20205;-88
2022/11/10 05:32:28;;;;;;;8.23;1.80;;;8.50;99.90;;;;;;5057365;28;20186;-87
2022/11/10 05:34:53;;;;;;;8.60;2.77;;;8.40;99.90;;;;;;5058159;28;20672;-88
2022/11/10 05:37:19;;;;;;;8.13;2.23;;;8.40;99.90;;;;;;5056541;28;20181;-87
2022/11/10 05:39:44;;;;;;;12.13;2.47;;;8.40;99.90;;;;;;5055883;28;20182;-88
2022/11/10 05:42:10;;;;;;;7.97;1.80;;;8.30;99.90;;;;;;5062880;28;20185;-88
2022/11/10 05:44:35;;;;;;;10.80;2.73;;;8.30;99.90;;;;;;5043675;28;20186;-88
2022/11/10 05:47:01;;;;;;;7.13;2.13;;;8.20;99.90;;;;;;5056742;28;20273;-89
2022/11/10 05:49:27;;;;;;;14.40;2.03;;;8.10;99.90;;;;;;5055575;28;20255;-88
2022/11/10 05:51:53;;;;;;;9.47;2.70;;;8.10;99.90;;;;;;5055271;28;20424;-89
2022/11/10 05:54:18;;;;;;;6.47;2.30;;;8.00;99.90;;;;;;5055382;28;20240;-84
2022/11/10 05:56:44;;;;;;;6.50;2.47;;;8.00;99.90;;;;;;5038705;28;20274;-89
2022/11/10 05:59:10;;;;;;;7.47;2.45;;;7.90;99.90;;;;;;5055558;28;20626;-88
2022/11/10 06:01:35;;;;;;;10.70;2.53;;;7.90;99.90;;;;;;5054513;28;20273;-88
2022/11/10 06:04:01;;;;;;;13.30;2.90;;;7.90;99.90;;;;;;5055603;28;20201;-88
2022/11/10 06:06:27;;;;;;;9.97;2.07;;;7.80;99.90;;;;;;5054992;28;20185;-88
2022/11/10 06:08:52;;;;;;;7.57;2.00;;;7.80;99.90;;;;;;5060282;28;20189;-88
2022/11/10 06:11:19;;;;;;;8.03;3.03;;;7.80;99.90;;;;;;5062168;28;20546;-85
2022/11/10 06:13:44;;;;;;;9.07;2.30;;;7.70;99.90;;;;;;5056163;28;20243;-87
2022/11/10 06:16:10;;;;;;;10.33;2.30;;;7.60;99.90;;;;;;5055067;28;20617;-86
2022/11/10 06:18:35;;;;;;;7.80;2.03;;;7.60;99.90;;;;;;5021337;28;20192;-89
2022/11/10 06:21:01;;;;;;;6.10;2.07;;;7.50;99.90;;;;;;5055325;28;20241;-89
2022/11/10 06:23:27;;;;;;;7.63;1.73;;;7.50;99.90;;;;;;5055355;28;20212;-88
2022/11/10 06:25:52;;;;;;;11.50;2.83;;;7.40;99.90;;;;;;5038331;28;20208;-89
2022/11/10 06:28:18;;;;;;;6.93;2.10;;;7.40;99.90;;;;;;5038589;28;20186;-89
2022/11/10 06:30:43;;;;;;;7.93;2.73;;;7.40;99.90;;;;;;5056430;28;20178;-89
2022/11/10 06:33:09;;;;;;;17.57;4.40;;;7.40;99.90;;;;;;5055667;28;20546;-89
2022/11/10 06:35:35;;;;;;;10.53;3.57;;;7.30;99.90;;;;;;5055866;28;20177;-87
2022/11/10 06:38:03;;;;;;;10.47;3.23;;;7.30;99.90;;;;;;5055515;28;20181;-86
2022/11/10 06:40:30;;;;;;;26.27;5.97;;;7.30;99.90;;;;;;5056069;28;20183;-88
2022/11/10 06:42:56;;;;;;;14.48;7.13;;;7.30;99.90;;;;;;5054851;28;20220;-88
2022/11/10 06:45:22;;;;;;;16.60;7.10;;;7.30;99.90;;;;;;5055876;28;20182;-84
2022/11/10 06:47:47;;;;;;;18.67;6.23;;;7.30;99.90;;;;;;5054952;28;20185;-88
2022/11/10 06:50:13;;;;;;;10.17;4.57;;;7.30;99.90;;;;;;5055473;28;20457;-88
2022/11/10 06:52:39;;;;;;;16.90;4.23;;;7.30;99.90;;;;;;5038384;28;20205;-86
2022/11/10 06:55:05;;;;;;;9.40;3.37;;;7.30;99.90;;;;;;5055426;28;20192;-86
2022/11/10 06:57:37;;;;;;;11.88;3.78;;;7.30;99.90;;;;;;5054398;28;20182;-87
2022/11/10 07:00:04;;;;;;;11.70;3.40;;;7.30;99.90;;;;;;5054420;28;20169;-89
2022/11/10 07:02:29;;;;;;;10.63;3.33;;;7.40;99.90;;;;;;5054939;28;20188;-86
2022/11/10 07:04:55;;;;;;;13.00;4.13;;;7.40;99.90;;;;;;5054248;28;20185;-87
2022/11/10 07:07:20;;;;;;;7.03;3.07;;;7.40;99.90;;;;;;5055943;28;20254;-87
2022/11/10 07:09:46;;;;;;;10.57;3.37;;;7.40;99.90;;;;;;5056395;28;20212;-86
2022/11/10 07:12:12;;;;;;;16.03;4.00;;;7.40;99.90;;;;;;5053314;28;20271;-85
2022/11/10 07:14:37;;;;;;;12.83;3.90;;;7.40;99.90;;;;;;5053768;28;20541;-87
2022/11/10 07:17:03;;;;;;;14.17;2.90;;;7.40;99.90;;;;;;5054620;28;20205;-87
2022/11/10 07:19:28;;;;;;;9.80;2.80;;;7.40;99.90;;;;;;5037099;28;20178;-87
2022/11/10 07:21:54;;;;;;;8.63;2.73;;;7.40;99.90;;;;;;5055252;28;20296;-87
2022/11/10 07:24:19;;;;;;;6.60;2.63;;;7.40;99.90;;;;;;5054057;28;20192;-87
2022/11/10 07:26:45;;;;;;;8.67;2.40;;;7.40;99.90;;;;;;5054797;28;20177;-87
2022/11/10 07:29:10;;;;;;;12.73;2.63;;;7.50;99.90;;;;;;5037340;28;20738;-87
2022/11/10 07:31:36;;;;;;;11.70;3.10;;;7.50;99.90;;;;;;5053515;28;20645;-86
2022/11/10 07:34:01;;;;;;;7.83;2.90;;;7.50;99.90;;;;;;5055148;28;20201;-86
2022/11/10 07:36:28;;;;;;;13.53;3.43;;;7.50;99.90;;;;;;5053508;28;20181;-87
2022/11/10 07:38:54;;;;;;;11.20;2.38;;;7.60;99.90;;;;;;5053927;28;20243;-88
2022/11/10 07:41:19;;;;;;;12.02;3.53;;;7.60;99.90;;;;;;5055070;28;20283;-87
2022/11/10 07:43:45;;;;;;;17.73;3.60;;;7.60;99.90;;;;;;5022052;28;20653;-88
2022/11/10 07:46:11;;;;;;;14.23;2.47;;;7.70;99.90;;;;;;5055816;28;20181;-86
2022/11/10 07:48:36;;;;;;;10.27;3.17;;;7.70;99.90;;;;;;5058234;28;20311;-87
2022/11/10 07:51:02;;;;;;;11.00;2.90;;;7.80;99.90;;;;;;5061127;28;20193;-87
2022/11/10 07:53:27;;;;;;;8.97;2.47;;;7.80;99.90;;;;;;5053430;28;20204;-87
2022/11/10 07:55:54;;;;;;;9.90;3.47;;;7.90;99.90;;;;;;5036737;28;20235;-87
2022/11/10 07:58:20;;;;;;;9.02;2.60;;;7.90;99.90;;;;;;5053722;28;20177;-87
2022/11/10 08:00:46;;;;;;;11.02;2.65;;;8.00;99.90;;;;;;5054475;28;20483;-88
2022/11/10 08:03:21;;;;;;;24.77;3.97;;;8.00;99.90;;;;;;5036497;28;20185;-88
2022/11/10 08:05:47;;;;;;;14.75;2.60;;;8.10;99.90;;;;;;5054156;28;20248;-87
2022/11/10 08:08:12;;;;;;;16.17;2.70;;;8.20;99.90;;;;;;5054420;28;20216;-86
2022/11/10 08:10:40;;;;;;;10.20;3.47;;;8.20;99.90;;;;;;5052453;28;20213;-87
2022/11/10 08:13:08;;;;;;;7.90;3.30;;;8.30;99.90;;;;;;5054354;28;20553;-88
2022/11/10 08:15:34;;;;;;;15.23;2.53;;;8.40;99.90;;;;;;5052650;28;20177;-88
2022/11/10 08:18:05;;;;;;;13.75;3.33;;;8.50;99.90;;;;;;5052987;28;20631;-88
2022/11/10 08:20:31;;;;;;;8.10;2.72;;;8.60;99.90;;;;;;5053986;28;20185;-89
2022/11/10 08:23:03;;;;;;;11.50;2.50;;;8.70;99.90;;;;;;5054466;28;20235;-89
2022/11/10 08:25:30;;;;;;;7.53;1.92;;;8.80;99.90;;;;;;5053872;28;20173;-87
2022/11/10 08:28:06;;;;;;;5.45;1.92;;;8.90;99.90;;;;;;5052895;28;20251;-88
2022/11/10 08:30:33;;;;;;;11.70;2.45;;;8.90;99.90;;;;;;5052299;28;20215;-87
2022/11/10 08:33:00;;;;;;;10.20;2.53;;;9.00;99.90;;;;;;5053862;28;20185;-87
2022/11/10 08:35:29;;;;;;;10.77;2.70;;;9.10;99.90;;;;;;5053841;28;20173;-88
2022/11/10 08:37:55;;;;;;;6.28;1.98;;;9.20;99.90;;;;;;5054225;28;20184;-88
2022/11/10 08:40:21;;;;;;;6.33;1.93;;;9.20;99.90;;;;;;5053988;28;20185;-88
2022/11/10 08:42:47;;;;;;;9.50;2.35;;;9.30;99.90;;;;;;5052409;28;21016;-88
2022/11/10 08:45:14;;;;;;;5.45;2.03;;;9.40;99.90;;;;;;5036413;28;20185;-87
2022/11/10 08:47:40;;;;;;;9.25;2.65;;;9.50;99.90;;;;;;5052453;28;20741;-88
2022/11/10 08:50:06;;;;;;;9.93;2.40;;;9.60;99.90;;;;;;5035952;28;20304;-88
2022/11/10 08:52:32;;;;;;;10.52;2.25;;;9.70;99.90;;;;;;5051864;28;20189;-88
2022/11/10 08:54:58;;;;;;;9.90;2.43;;;9.80;99.90;;;;;;5054626;28;20182;-88
2022/11/10 08:57:23;;;;;;;14.47;2.50;;;9.90;99.90;;;;;;5052650;28;20645;-88
2022/11/10 08:59:49;;;;;;;11.30;2.57;;;10.10;99.90;;;;;;5053554;28;20420;-88
2022/11/10 09:02:15;;;;;;;7.30;2.23;;;10.10;99.90;;;;;;5052709;28;20523;-88
2022/11/10 09:04:40;;;;;;;7.17;2.10;;;10.20;99.90;;;;;;5052418;28;20184;-88
2022/11/10 09:07:06;;;;;;;15.47;2.97;;;10.30;99.90;;;;;;5053721;28;20273;-88
2022/11/10 09:09:32;;;;;;;12.47;2.60;;;10.40;99.90;;;;;;5053529;28;20463;-88
2022/11/10 09:11:57;;;;;;;11.10;3.23;;;10.50;99.90;;;;;;5053758;28;20186;-88
2022/11/10 09:14:23;;;;;;;8.37;2.50;;;10.60;99.90;;;;;;5056563;28;20182;-87
2022/11/10 09:16:48;;;;;;;14.57;3.43;;;10.80;99.90;;;;;;5040290;28;20216;-87
2022/11/10 09:19:14;;;;;;;11.07;3.63;;;10.90;99.90;;;;;;5056562;28;20630;-88
2022/11/10 09:21:39;;;;;;;12.60;3.03;;;11.10;99.90;;;;;;5039159;28;20236;-88
2022/11/10 09:24:05;;;;;;;8.67;2.53;;;11.50;99.90;;;;;;5056519;28;20660;-88
2022/11/10 09:26:31;;;;;;;12.77;2.53;;;11.80;99.90;;;;;;5056374;28;20177;-87
2022/11/10 09:28:57;;;;;;;10.20;2.60;;;12.00;99.90;;;;;;5056041;28;20470;-89
2022/11/10 09:31:23;;;;;;;12.97;2.60;;;12.30;99.90;;;;;;5057033;28;20184;-89
2022/11/10 09:33:48;;;;;;;12.20;3.10;;;12.60;99.90;;;;;;5056994;28;20695;-88
2022/11/10 09:36:14;;;;;;;8.10;2.13;;;12.80;99.90;;;;;;5039246;28;20423;-89
2022/11/10 09:38:39;;;;;;;9.23;2.40;;;12.90;99.90;;;;;;5055352;28;20185;-89
2022/11/10 09:41:09;;;;;;;8.43;2.43;;;13.30;99.90;;;;;;5057046;28;20204;-89
2022/11/10 09:44:04;;;;;;;16.47;3.40;;;13.40;99.90;;;;;;5055362;28;20768;-89
2022/11/10 09:46:43;;;;;;;6.70;2.37;;;13.60;99.90;;;;;;5056787;28;20957;-88
2022/11/10 09:49:34;;;;;;;9.60;2.40;;;13.60;99.90;;;;;;5056387;28;20467;-88
2022/11/10 09:52:01;;;;;;;9.40;2.00;;;14.10;99.90;;;;;;5049326;28;20454;-87
2022/11/10 09:54:44;;;;;;;11.00;3.60;;;14.40;99.90;;;;;;5056754;28;20391;-87
2022/11/10 09:57:15;;;;;;;6.60;2.37;;;14.40;99.90;;;;;;5056389;28;20400;-87
2022/11/10 09:59:43;;;;;;;7.37;1.90;;;14.50;99.90;;;;;;5056466;28;20808;-88
2022/11/10 10:02:31;;;;;;;7.00;2.73;;;14.60;99.90;;;;;;5055613;28;20424;-89
2022/11/10 10:05:21;;;;;;;10.47;2.20;;;15.00;99.90;;;;;;5056198;28;20790;-89
2022/11/10 10:08:02;;;;;;;8.77;2.30;;;15.30;99.90;;;;;;5054721;28;20391;-90
2022/11/10 10:10:38;;;;;;;8.23;2.03;;;15.50;99.90;;;;;;5056115;28;20452;-87
2022/11/10 10:13:37;;;;;;;10.17;1.80;;;15.70;99.90;;;;;;5057660;28;20431;-89
2022/11/10 10:16:17;;;;;;;10.37;2.53;;;15.50;99.90;;;;;;5054637;28;20716;-87
2022/11/10 10:18:55;;;;;;;8.20;2.70;;;15.50;99.90;;;;;;5055395;28;20753;-89
2022/11/10 10:21:32;;;;;;;5.20;1.70;;;15.80;99.90;;;;;;5054100;28;20529;-89
2022/11/10 10:24:01;;;;;;;9.40;2.20;;;16.00;99.90;;;;;;5053725;28;20780;-89
2022/11/10 10:26:29;;;;;;;9.37;3.47;;;15.90;99.90;;;;;;5054645;28;20470;-89
2022/11/10 10:28:57;;;;;;;4.23;2.20;;;16.30;99.90;;;;;;5055508;28;20440;-88
2022/11/10 10:31:27;;;;;;;8.10;3.03;;;16.80;99.90;;;;;;5054225;28;20514;-88
2022/11/10 10:33:53;;;;;;;5.13;1.80;;;16.60;99.90;;;;;;5055244;28;20745;-88
2022/11/10 10:36:28;;;;;;;7.43;1.97;;;16.70;99.90;;;;;;5037633;28;20935;-88
2022/11/10 10:38:59;;;;;;;7.10;1.90;;;17.10;99.90;;;;;;5054838;28;20937;-88
2022/11/10 10:41:31;;;;;;;6.23;1.90;;;17.20;99.90;;;;;;5055143;28;20851;-87
2022/11/10 10:43:59;;;;;;;13.27;2.50;;;17.00;99.90;;;;;;5054605;28;20513;-88
2022/11/10 10:46:28;;;;;;;13.53;2.23;;;17.00;99.90;;;;;;5055003;28;20888;-88
2022/11/10 10:49:23;;;;;;;6.20;1.73;;;17.00;99.90;;;;;;5053387;28;20470;-86
2022/11/10 10:52:00;;;;;;;3.77;1.50;;;17.10;99.90;;;;;;5053161;28;20927;-87
2022/11/10 10:54:28;;;;;;;5.40;1.67;;;16.90;99.90;;;;;;5055152;28;20403;-87
2022/11/10 10:57:02;;;;;;;5.90;1.33;;;17.30;99.90;;;;;;5054580;28;20419;-87
2022/11/10 10:59:28;;;;;;;6.87;1.63;;;17.60;99.90;;;;;;5052593;28;20401;-86
2022/11/10 11:01:54;;;;;;;5.60;1.20;;;17.80;99.90;;;;;;5049618;28;20419;-86
2022/11/10 11:04:28;;;;;;;13.53;1.63;;;17.80;99.90;;;;;;5052076;28;20412;-86
2022/11/10 11:07:00;;;;;;;7.60;1.77;;;17.60;99.90;;;;;;5054106;28;20387;-87
2022/11/10 11:09:39;;;;;;;3.80;1.77;;;18.10;99.90;;;;;;5053109;28;20493;-87
2022/11/10 11:12:26;;;;;;;6.40;1.23;;;18.50;99.90;;;;;;5052819;28;20419;-86
2022/11/10 11:15:09;;;;;;;5.60;1.57;;;18.20;99.90;;;;;;5052786;28;20391;-87
2022/11/10 11:17:35;;;;;;;4.43;1.50;;;18.60;99.90;;;;;;5053424;28;20532;-87
2022/11/10 11:20:00;;;;;;;8.00;1.93;;;19.20;99.90;;;;;;5052840;28;20410;-87
2022/11/10 11:22:48;;;;;;;4.93;1.53;;;19.10;99.90;;;;;;5052607;28;20866;-87
2022/11/10 11:25:37;;;;;;;4.63;1.40;;;19.10;99.90;;;;;;5053042;28;20280;-86
2022/11/10 11:28:30;;;;;;;4.33;1.60;;;19.50;99.90;;;;;;5054335;28;20504;-87
2022/11/10 11:31:28;;;;;;;10.90;1.93;;;19.70;99.90;;;;;;5052847;28;20499;-88
2022/11/10 11:34:13;;;;;;;5.30;1.90;;;19.60;99.90;;;;;;5052806;28;20409;-88
2022/11/10 11:37:03;;;;;;;6.17;2.03;;;19.10;99.90;;;;;;5053072;28;20777;-86
2022/11/10 11:40:03;;;;;;;8.40;1.43;;;19.10;99.90;;;;;;5054219;28;20404;-87
2022/11/10 11:42:59;;;;;;;4.73;1.20;;;18.70;99.90;;;;;;5055964;28;20474;-88
2022/11/10 11:45:55;;;;;;;3.93;1.43;;;18.40;99.90;;;;;;5056288;28;20392;-88
2022/11/10 11:48:32;;;;;;;5.87;1.37;;;18.30;99.90;;;;;;5056783;28;20391;-87
2022/11/10 11:51:21;;;;;;;11.10;2.07;;;18.30;99.90;;;;;;5055124;28;20513;-87
2022/11/10 11:54:19;;;;;;;4.87;1.57;;;18.00;99.90;;;;;;5053761;28;20392;-87
2022/11/10 11:56:48;;;;;;;5.57;1.40;;;17.50;99.90;;;;;;5028277;28;20398;-88
2022/11/10 11:59:32;;;;;;;5.97;1.33;;;17.30;99.90;;;;;;5052240;28;20874;-87
2022/11/10 12:02:35;;;;;;;4.90;1.50;;;17.40;99.90;;;;;;5053535;28;20453;-88
2022/11/10 12:05:21;;;;;;;6.03;1.30;;;17.60;99.90;;;;;;5053510;28;21080;-87
2022/11/10 12:08:11;;;;;;;4.57;1.43;;;17.60;99.90;;;;;;5052645;28;20875;-86
2022/11/10 12:10:57;;;;;;;4.57;1.60;;;17.60;99.90;;;;;;5052873;28;20434;-86
2022/11/10 12:13:35;;;;;;;4.97;1.93;;;17.90;99.90;;;;;;5053893;28;20519;-87
2022/11/10 12:16:22;;;;;;;3.33;1.63;;;17.90;99.90;;;;;;5053696;28;20415;-87
2022/11/10 12:19:02;;;;;;;3.53;1.20;;;18.20;99.90;;;;;;5053240;28;20398;-87
2022/11/10 12:21:53;;;;;;;4.23;1.53;;;18.30;99.90;;;;;;5052333;28;20827;-87
2022/11/10 12:24:45;;;;;;;5.10;1.73;;;18.30;99.90;;;;;;5054127;28;20375;-86
2022/11/10 12:27:18;;;;;;;5.47;1.20;;;18.30;99.90;;;;;;5053207;28;20448;-87
2022/11/10 12:30:00;;;;;;;8.07;2.27;;;18.00;99.90;;;;;;5054275;28;20459;-86
2022/11/10 12:32:51;;;;;;;5.07;1.37;;;18.00;99.90;;;;;;5054488;28;20505;-87
2022/11/10 12:35:27;;;;;;;5.10;1.30;;;18.20;99.90;;;;;;5055048;28;20375;-86
2022/11/10 12:38:18;;;;;;;7.00;1.63;;;18.00;99.90;;;;;;5053710;28;20502;-87
2022/11/10 12:40:50;;;;;;;5.40;1.43;;;18.20;99.90;;;;;;5052131;28;20427;-86
2022/11/10 12:43:40;;;;;;;10.47;2.07;;;18.30;99.90;;;;;;5053684;28;20374;-86
2022/11/10 12:46:10;;;;;;;4.17;1.60;;;18.40;99.90;;;;;;5053810;28;20404;-87
2022/11/10 12:49:06;;;;;;;5.23;1.27;;;18.50;99.90;;;;;;5056548;28;20973;-87
2022/11/10 12:51:51;;;;;;;8.07;2.10;;;;;;;;;;5057756;28;20438;-88
2022/11/10 12:54:17;;;;;;;4.47;1.00;;;;;;;;;;5063576;28;20486;-87
2022/11/10 12:56:48;;;;;;;3.10;1.40;;;;;;;;;;5056818;28;20762;-83
2022/11/10 12:59:20;;;;;;;4.13;1.13;;;;;;;;;;5058121;28;20384;-87
2022/11/10 13:01:51;;;;;;;6.27;1.57;;;;;;;;;;5058497;28;20378;-87
2022/11/10 13:04:18;;;;;;;6.87;1.50;;;;;;;;;;5057210;28;20755;-87
2022/11/10 13:07:04;;;;;;;2.73;1.20;;;;;;;;;;5057740;28;20400;-83
2022/11/10 13:09:35;;;;;;;2.80;0.80;;;;;;;;;;5057728;28;20507;-87
2022/11/10 13:12:03;;;;;;;3.63;0.90;;;;;;;;;;5056954;28;20408;-87
2022/11/10 13:14:30;;;;;;;6.37;1.17;;;;;;;;;;5056977;28;20429;-87
2022/11/10 13:16:56;;;;;;;5.00;1.50;;;;;;;;;;5056881;28;20424;-87
2022/11/10 13:19:22;;;;;;;5.63;1.40;;;;;;;;;;5056284;28;20437;-87